Time;durP1;ratioP1;P1;durP2;ratioP2;P2;SDS_P1;SDS_P2;PMS_P1;PMS_P2;Temp;Humidity;BMP_temperature;BMP_pressure;BME280_temperature;BME280_humidity;BME280_pressure;Samples;Min_cycle;Max_cycle;Signal;HPM_P1;HPM_P2
2022/09/21 00:00:36;;;;;;;3.88;1.33;;;;;;;;;;5089565;28;20510;-76
2022/09/21 00:03:01;;;;;;;5.00;1.20;;;;;;;;;;5089445;28;20381;-77
2022/09/21 00:05:26;;;;;;;5.65;1.17;;;;;;;;;;5089659;28;20024;-75
2022/09/21 00:07:52;;;;;;;6.72;1.60;;;;;;;;;;5089411;28;20040;-76
2022/09/21 00:10:19;;;;;;;3.95;0.98;;;;;;;;;;5089624;28;20088;-76
2022/09/21 00:12:47;;;;;;;1.95;0.90;;;;;;;;;;5089157;28;20103;-75
2022/09/21 00:15:14;;;;;;;6.15;1.00;;;;;;;;;;5089367;28;20036;-75
2022/09/21 00:17:39;;;;;;;4.50;1.10;;;;;;;;;;5089492;28;20056;-76
2022/09/21 00:20:05;;;;;;;4.28;1.20;;;;;;;;;;5071238;28;20067;-76
2022/09/21 00:22:34;;;;;;;2.33;1.10;;;;;;;;;;5089277;28;20036;-76
2022/09/21 00:25:03;;;;;;;2.72;1.10;;;;;;;;;;5089394;28;20028;-76
2022/09/21 00:27:31;;;;;;;4.00;1.00;;;;;;;;;;5089102;28;20098;-76
2022/09/21 00:30:01;;;;;;;1.75;1.00;;;;;;;;;;5089567;28;20044;-76
2022/09/21 00:32:30;;;;;;;2.08;0.98;;;;;;;;;;5089269;28;20629;-75
2022/09/21 00:34:56;;;;;;;3.97;1.05;;;;;;;;;;5088889;28;20024;-75
2022/09/21 00:37:23;;;;;;;2.40;1.00;;;;;;;;;;5089095;28;20172;-76
2022/09/21 00:39:48;;;;;;;4.88;1.00;;;;;;;;;;5089437;28;20016;-76
2022/09/21 00:42:19;;;;;;;7.85;1.38;;;;;;;;;;5089151;28;20035;-76
2022/09/21 00:44:44;;;;;;;5.05;1.10;;;;;;;;;;5090876;28;20036;-75
2022/09/21 00:47:13;;;;;;;3.38;1.08;;;;;;;;;;5093215;28;20108;-75
2022/09/21 00:49:41;;;;;;;3.53;1.15;;;;;;;;;;5093536;28;20034;-76
2022/09/21 00:52:10;;;;;;;6.07;1.00;;;;;;;;;;5093234;28;20907;-76
2022/09/21 00:54:48;;;;;;;3.08;0.95;;;;;;;;;;5093109;28;20032;-76
2022/09/21 00:57:15;;;;;;;4.57;1.05;;;;;;;;;;5092575;28;20441;-76
2022/09/21 00:59:43;;;;;;;9.13;1.10;;;;;;;;;;5093330;28;20084;-75
2022/09/21 01:02:10;;;;;;;4.18;1.00;;;;;;;;;;5093284;28;20107;-75
2022/09/21 01:04:37;;;;;;;3.88;1.00;;;;;;;;;;5092827;28;20085;-75
2022/09/21 01:07:11;;;;;;;2.45;1.00;;;;;;;;;;5092812;28;20086;-78
2022/09/21 01:09:37;;;;;;;6.13;1.10;;;;;;;;;;5092588;28;20082;-76
2022/09/21 01:12:17;;;;;;;2.03;1.00;;;;;;;;;;5092606;28;20102;-76
2022/09/21 01:14:57;;;;;;;4.15;1.17;;;;;;;;;;5092482;28;20115;-76
2022/09/21 01:17:56;;;;;;;5.88;1.35;;;;;;;;;;5092747;28;20472;-76
2022/09/21 01:21:00;;;;;;;11.30;1.30;;;;;;;;;;5092926;28;20020;-75
2022/09/21 01:23:44;;;;;;;5.72;1.10;;;;;;;;;;5092550;28;20032;-76
2022/09/21 01:26:44;;;;;;;6.38;1.20;;;;;;;;;;5092586;28;20479;-76
2022/09/21 01:29:25;;;;;;;6.50;1.13;;;;;;;;;;5073934;28;20043;-75
2022/09/21 01:31:56;;;;;;;5.05;1.17;;;;;;;;;;5092576;28;20012;-76
2022/09/21 01:34:31;;;;;;;5.75;1.23;;;;;;;;;;5092053;28;20081;-75
2022/09/21 01:37:02;;;;;;;6.05;1.20;;;;;;;;;;5092766;28;20028;-76
2022/09/21 01:39:29;;;;;;;3.22;1.20;;;;;;;;;;5092336;28;20040;-76
2022/09/21 01:41:56;;;;;;;6.80;1.00;;;;;;;;;;5092569;28;20024;-75
2022/09/21 01:44:26;;;;;;;4.90;1.10;;;;;;;;;;5091872;28;20427;-76
2022/09/21 01:46:52;;;;;;;3.97;1.20;;;;;;;;;;5092409;28;20028;-76
2022/09/21 01:49:26;;;;;;;5.15;1.10;;;;;;;;;;5092223;28;20043;-75
2022/09/21 01:52:01;;;;;;;4.60;1.10;;;;;;;;;;5092207;28;20442;-76
2022/09/21 01:54:36;;;;;;;4.10;1.15;;;;;;;;;;5091765;28;20052;-76
2022/09/21 01:57:13;;;;;;;3.78;1.08;;;;;;;;;;5090373;28;20449;-76
2022/09/21 01:59:49;;;;;;;3.35;1.00;;;;;;;;;;5091809;28;20016;-76
2022/09/21 02:02:21;;;;;;;3.28;1.10;;;;;;;;;;5091975;28;20028;-75
2022/09/21 02:04:46;;;;;;;3.00;1.02;;;;;;;;;;5091497;28;20092;-75
2022/09/21 02:07:12;;;;;;;4.40;0.90;;;;;;;;;;5091683;28;20040;-76
2022/09/21 02:09:38;;;;;;;2.95;1.20;;;;;;;;;;5091646;28;20032;-76
2022/09/21 02:12:04;;;;;;;3.58;1.27;;;;;;;;;;5091346;28;20035;-76
2022/09/21 02:14:32;;;;;;;3.95;1.10;;;;;;;;;;5091603;28;20107;-76
2022/09/21 02:17:03;;;;;;;2.90;1.10;;;;;;;;;;5073788;28;20024;-76
2022/09/21 02:20:09;;;;;;;5.93;1.17;;;;;;;;;;5091388;28;20028;-76
2022/09/21 02:22:41;;;;;;;3.70;1.08;;;;;;;;;;5091762;28;20029;-75
2022/09/21 02:25:12;;;;;;;6.07;1.13;;;;;;;;;;5091142;28;20069;-76
2022/09/21 02:28:19;;;;;;;4.15;1.10;;;;;;;;;;5091306;28;20024;-75
2022/09/21 02:30:59;;;;;;;5.60;1.15;;;;;;;;;;5035324;28;20516;-76
2022/09/21 02:33:40;;;;;;;5.10;1.00;;;;;;;;;;5091243;28;20043;-76
2022/09/21 02:36:15;;;;;;;5.38;1.13;;;;;;;;;;5091163;28;20024;-76
2022/09/21 02:38:48;;;;;;;5.35;1.10;;;;;;;;;;5091028;28;20666;-75
2022/09/21 02:41:28;;;;;;;7.82;1.30;;;;;;;;;;5073201;28;20028;-76
2022/09/21 03:02:43;;;;;;;5.32;1.17;;;;;;;;;;4808573;28;20046;-74
2022/09/21 03:05:10;;;;;;;5.82;1.05;;;;;;;;;;5031264;28;20518;-77
2022/09/21 03:07:36;;;;;;;3.35;1.35;;;;;;;;;;5031173;28;20025;-77
2022/09/21 03:10:02;;;;;;;2.17;1.10;;;;;;;;;;5031341;28;20542;-77
2022/09/21 03:12:28;;;;;;;4.15;1.10;;;;;;;;;;5031124;28;20451;-76
2022/09/21 03:14:54;;;;;;;4.20;1.15;;;;;;;;;;5031020;28;20434;-76
2022/09/21 03:17:20;;;;;;;3.88;1.10;;;;;;;;;;5031056;28;20021;-76
2022/09/21 03:19:46;;;;;;;5.88;1.38;;;;;;;;;;5029474;28;20018;-77
2022/09/21 03:22:11;;;;;;;4.75;1.27;;;;;;;;;;5030873;28;20025;-77
2022/09/21 03:24:45;;;;;;;4.20;1.30;;;;;;;;;;5029579;28;20029;-76
2022/09/21 03:27:17;;;;;;;4.03;1.20;;;;;;;;;;5030976;28;20109;-76
2022/09/21 03:29:43;;;;;;;6.63;1.60;;;;;;;;;;5030924;28;20037;-76
2022/09/21 03:32:08;;;;;;;6.75;1.33;;;;;;;;;;5029398;28;20029;-76
2022/09/21 03:34:34;;;;;;;5.32;1.20;;;;;;;;;;5030545;28;20033;-76
2022/09/21 03:37:00;;;;;;;8.05;1.23;;;;;;;;;;5046239;28;20112;-76
2022/09/21 03:39:26;;;;;;;4.82;1.17;;;;;;;;;;5030480;28;20064;-76
2022/09/21 03:41:54;;;;;;;5.15;1.45;;;;;;;;;;5045919;28;20069;-76
2022/09/21 03:44:20;;;;;;;4.75;1.10;;;;;;;;;;5030556;28;20033;-76
2022/09/21 03:46:45;;;;;;;4.50;1.13;;;;;;;;;;5030679;28;20404;-76
2022/09/21 03:49:10;;;;;;;6.78;1.42;;;;;;;;;;5030533;28;20521;-77
2022/09/21 03:51:36;;;;;;;4.28;1.30;;;;;;;;;;5030280;28;20029;-77
2022/09/21 03:54:02;;;;;;;4.85;1.20;;;;;;;;;;5030485;28;20108;-76
2022/09/21 03:56:27;;;;;;;8.65;1.10;;;;;;;;;;5030116;28;20543;-76
2022/09/21 03:58:53;;;;;;;6.18;1.40;;;;;;;;;;5030511;28;20036;-77
2022/09/21 04:01:18;;;;;;;3.25;1.00;;;;;;;;;;5030060;28;20036;-76
2022/09/21 04:03:43;;;;;;;5.30;1.15;;;;;;;;;;5028953;28;20057;-76
2022/09/21 04:06:10;;;;;;;2.35;1.00;;;;;;;;;;5030349;28;20029;-77
2022/09/21 04:08:36;;;;;;;6.10;1.20;;;;;;;;;;5030277;28;20424;-76
2022/09/21 04:11:12;;;;;;;7.18;1.25;;;;;;;;;;5029908;28;20033;-76
2022/09/21 04:13:37;;;;;;;2.38;1.23;;;;;;;;;;5030487;28;20029;-76
2022/09/21 04:16:03;;;;;;;3.15;1.10;;;;;;;;;;5030063;28;20491;-77
2022/09/21 04:18:28;;;;;;;7.03;1.40;;;;;;;;;;5029846;28;20529;-76
2022/09/21 04:20:53;;;;;;;4.82;1.20;;;;;;;;;;5029530;28;20115;-76
2022/09/21 04:23:19;;;;;;;4.90;1.30;;;;;;;;;;5030068;28;20057;-76
2022/09/21 04:25:47;;;;;;;4.13;1.15;;;;;;;;;;5029939;28;20535;-79
2022/09/21 04:28:13;;;;;;;6.68;1.30;;;;;;;;;;5030093;28;20480;-81
2022/09/21 04:30:39;;;;;;;3.70;1.10;;;;;;;;;;5029660;28;20033;-81
2022/09/21 04:33:05;;;;;;;5.82;1.35;;;;;;;;;;5028320;28;20111;-80
2022/09/21 04:35:30;;;;;;;5.65;1.30;;;;;;;;;;5028455;28;20075;-82
2022/09/21 04:37:55;;;;;;;5.00;1.30;;;;;;;;;;5030157;28;20032;-81
2022/09/21 04:40:22;;;;;;;6.50;1.35;;;;;;;;;;5029992;28;20028;-79
2022/09/21 04:42:54;;;;;;;5.55;1.10;;;;;;;;;;5029940;28;20615;-77
2022/09/21 04:45:21;;;;;;;7.47;1.17;;;;;;;;;;5028438;28;20092;-78
2022/09/21 04:47:47;;;;;;;4.95;1.08;;;;;;;;;;5029691;28;20026;-77
2022/09/21 04:50:12;;;;;;;3.75;1.13;;;;;;;;;;5029611;28;20036;-77
2022/09/21 04:52:38;;;;;;;4.18;1.23;;;;;;;;;;5029901;28;20499;-77
2022/09/21 04:55:05;;;;;;;4.85;1.20;;;;;;;;;;5029671;28;20081;-76
2022/09/21 04:57:30;;;;;;;3.78;1.10;;;;;;;;;;5030160;28;20021;-77
2022/09/21 04:59:55;;;;;;;5.65;1.25;;;;;;;;;;5029976;28;20120;-76
2022/09/21 05:02:21;;;;;;;4.82;1.25;;;;;;;;;;5029201;28;20065;-77
2022/09/21 05:04:46;;;;;;;6.60;1.08;;;;;;;;;;5029682;28;20033;-77
2022/09/21 05:07:11;;;;;;;4.63;1.15;;;;;;;;;;5029512;28;20029;-76
2022/09/21 05:12:21;;;;;;;7.65;1.30;;;;;;;;;;5029401;28;20036;-77
2022/09/21 05:14:46;;;;;;;4.50;1.13;;;;;;;;;;5029747;28;20183;-77
2022/09/21 05:17:12;;;;;;;4.45;1.20;;;;;;;;;;5029406;28;20049;-77
2022/09/21 05:19:37;;;;;;;4.47;1.20;;;;;;;;;;5029731;28;20036;-77
2022/09/21 05:22:02;;;;;;;3.13;1.40;;;;;;;;;;5029040;28;20048;-80
2022/09/21 05:24:28;;;;;;;3.63;1.40;;;;;;;;;;5029543;28;20512;-77
2022/09/21 05:26:53;;;;;;;6.75;1.60;;;;;;;;;;5029229;28;20025;-76
2022/09/21 05:29:19;;;;;;;6.90;1.35;;;;;;;;;;5029691;28;20109;-78
2022/09/21 05:31:53;;;;;;;9.68;1.60;;;;;;;;;;5032182;28;20400;-78
2022/09/21 05:34:32;;;;;;;8.80;1.33;;;;;;;;;;5033003;28;20029;-77
2022/09/21 05:37:05;;;;;;;7.85;1.60;;;;;;;;;;5048476;28;20116;-79
2022/09/21 05:39:30;;;;;;;3.67;1.10;;;;;;;;;;5033009;28;20025;-79
2022/09/21 05:41:56;;;;;;;7.07;1.40;;;;;;;;;;5032551;28;20080;-80
2022/09/21 05:44:22;;;;;;;4.38;1.40;;;;;;;;;;5032882;28;20078;-77
2022/09/21 05:47:11;;;;;;;6.93;1.30;;;;;;;;;;5032735;28;20490;-77
2022/09/21 05:49:50;;;;;;;14.00;1.50;;;;;;;;;;5027249;28;20038;-77
2022/09/21 05:52:29;;;;;;;3.50;1.13;;;;;;;;;;5032715;28;20029;-79
2022/09/21 05:55:09;;;;;;;5.22;1.40;;;;;;;;;;5032901;28;20113;-80
2022/09/21 05:57:53;;;;;;;7.43;1.30;;;;;;;;;;5032771;28;20026;-80
2022/09/21 06:00:21;;;;;;;3.85;1.05;;;;;;;;;;5033036;28;20076;-81
2022/09/21 06:03:25;;;;;;;7.82;1.33;;;;;;;;;;5032337;28;20060;-81
2022/09/21 06:05:50;;;;;;;10.27;1.45;;;;;;;;;;5032653;28;20037;-78
2022/09/21 06:08:15;;;;;;;5.32;1.40;;;;;;;;;;5032666;28;20068;-79
2022/09/21 06:10:41;;;;;;;4.68;1.20;;;;;;;;;;5032435;28;20080;-80
2022/09/21 06:13:07;;;;;;;5.10;1.35;;;;;;;;;;5032473;28;20025;-80
2022/09/21 06:15:37;;;;;;;7.82;1.38;;;;;;;;;;5032558;28;20033;-79
2022/09/21 06:18:06;;;;;;;8.70;1.55;;;;;;;;;;5032252;28;20022;-79
2022/09/21 06:20:31;;;;;;;6.95;1.42;;;;;;;;;;5032399;28;20034;-77
2022/09/21 06:23:01;;;;;;;6.47;1.40;;;;;;;;;;5032078;28;20029;-76
2022/09/21 06:25:27;;;;;;;6.53;1.55;;;;;;;;;;5032317;28;20029;-80
2022/09/21 06:27:52;;;;;;;4.95;1.30;;;;;;;;;;5032423;28;20037;-79
2022/09/21 06:30:18;;;;;;;6.38;1.50;;;;;;;;;;5032490;28;20033;-81
2022/09/21 06:32:43;;;;;;;7.68;1.50;;;;;;;;;;5031473;28;20412;-80
2022/09/21 06:35:08;;;;;;;5.88;1.38;;;;;;;;;;5047237;28;20029;-81
2022/09/21 06:37:34;;;;;;;10.20;1.67;;;;;;;;;;5031830;28;20025;-79
2022/09/21 06:39:59;;;;;;;6.85;1.45;;;;;;;;;;5032276;28;20472;-80
2022/09/21 06:42:26;;;;;;;7.68;1.52;;;;;;;;;;5029502;28;20036;-80
2022/09/21 06:44:51;;;;;;;5.60;1.50;;;;;;;;;;5032150;28;20143;-80
2022/09/21 06:47:17;;;;;;;5.53;1.20;;;;;;;;;;5031490;28;20515;-80
2022/09/21 06:49:42;;;;;;;11.45;1.52;;;;;;;;;;5031947;28;20036;-79
2022/09/21 06:52:07;;;;;;;6.88;1.45;;;;;;;;;;5030895;28;20025;-77
2022/09/21 06:54:33;;;;;;;3.67;1.60;;;;;;;;;;5031588;28;20477;-77
2022/09/21 06:56:58;;;;;;;5.60;1.50;;;;;;;;;;5031487;28;20025;-77
2022/09/21 06:59:24;;;;;;;5.90;1.33;;;;;;;;;;5031683;28;20033;-75
2022/09/21 07:01:49;;;;;;;6.60;1.60;;;;;;;;;;5029809;28;20511;-76
2022/09/21 07:04:15;;;;;;;9.60;1.65;;;;;;;;;;5031493;28;20033;-77
2022/09/21 07:06:40;;;;;;;8.02;1.80;;;;;;;;;;5031113;28;20060;-76
2022/09/21 07:09:05;;;;;;;5.10;1.48;;;;;;;;;;5031220;28;20377;-82
2022/09/21 07:11:31;;;;;;;8.45;1.98;;;;;;;;;;5031538;28;20140;-81
2022/09/21 07:13:57;;;;;;;5.50;1.40;;;;;;;;;;5029895;28;20029;-80
2022/09/21 07:16:23;;;;;;;9.75;1.52;;;;;;;;;;5029525;28;20124;-80
2022/09/21 07:18:48;;;;;;;6.90;1.77;;;;;;;;;;5031282;28;20686;-82
2022/09/21 07:21:15;;;;;;;8.52;1.70;;;;;;;;;;5031543;28;20480;-80
2022/09/21 07:23:40;;;;;;;8.77;1.45;;;;;;;;;;5030693;28;20067;-80
2022/09/21 07:26:08;;;;;;;8.10;1.98;;;;;;;;;;5031098;28;20057;-80
2022/09/21 07:28:34;;;;;;;8.77;1.80;;;;;;;;;;5030865;28;20032;-80
2022/09/21 07:31:14;;;;;;;11.23;1.67;;;;;;;;;;5030937;28;20108;-79
2022/09/21 07:33:45;;;;;;;7.00;1.67;;;;;;;;;;5030646;28;20025;-79
2022/09/21 07:36:11;;;;;;;8.43;1.52;;;;;;;;;;5030974;28;20526;-78
2022/09/21 07:38:38;;;;;;;13.88;2.10;;;;;;;;;;5030816;28;20087;-80
2022/09/21 07:41:05;;;;;;;8.98;1.67;;;;;;;;;;5030940;28;20504;-78
2022/09/21 07:43:32;;;;;;;11.93;1.98;;;;;;;;;;5030595;28;20052;-80
2022/09/21 07:46:00;;;;;;;57.00;4.57;;;;;;;;;;5029268;28;20625;-82
2022/09/21 07:48:27;;;;;;;20.92;2.38;;;;;;;;;;5030393;28;20025;-80
2022/09/21 07:50:53;;;;;;;11.70;2.03;;;;;;;;;;5030916;28;20033;-78
2022/09/21 07:53:19;;;;;;;42.95;3.08;;;;;;;;;;5030227;28;20033;-77
2022/09/21 07:55:45;;;;;;;15.07;2.08;;;;;;;;;;5030879;28;20365;-78
2022/09/21 08:00:55;;;;;;;9.85;1.50;;;;;;;;;;5030425;28;20094;-77
2022/09/21 08:03:20;;;;;;;12.35;1.83;;;;;;;;;;5029674;28;20440;-77
2022/09/21 08:05:45;;;;;;;7.90;1.90;;;;;;;;;;5030491;28;20033;-77
2022/09/21 08:08:11;;;;;;;10.13;1.75;;;;;;;;;;5030145;28;20119;-81
2022/09/21 08:10:38;;;;;;;9.40;1.42;;;;;;;;;;5030376;28;20030;-80
2022/09/21 08:13:04;;;;;;;10.23;1.73;;;;;;;;;;5030241;28;20588;-81
2022/09/21 08:15:29;;;;;;;12.27;1.67;;;;;;;;;;5030284;28;20036;-80
2022/09/21 08:17:56;;;;;;;9.40;1.50;;;;;;;;;;5029691;28;20029;-81
2022/09/21 08:20:22;;;;;;;12.25;1.70;;;;;;;;;;5030127;28;20087;-81
2022/09/21 08:22:47;;;;;;;27.20;2.58;;;;;;;;;;5029810;28;20027;-81
2022/09/21 08:25:12;;;;;;;8.93;1.70;;;;;;;;;;5045484;28;20065;-82
2022/09/21 08:27:39;;;;;;;8.68;1.80;;;;;;;;;;5030101;28;20172;-81
2022/09/21 08:30:06;;;;;;;7.35;1.80;;;;;;;;;;5030226;28;20059;-82
2022/09/21 08:32:32;;;;;;;8.05;1.70;;;;;;;;;;5029690;28;20018;-81
2022/09/21 08:34:57;;;;;;;5.70;1.52;;;;;;;;;;5029891;28;20080;-81
2022/09/21 08:37:23;;;;;;;8.13;1.60;;;;;;;;;;5029914;28;20033;-80
2022/09/21 08:39:48;;;;;;;8.85;1.70;;;;;;;;;;5029958;28;20700;-80
2022/09/21 08:42:51;;;;;;;6.88;1.50;;;;;;;;;;5029708;28;20022;-80
2022/09/21 08:45:20;;;;;;;9.93;1.63;;;;;;;;;;4987865;28;20042;-82
2022/09/21 08:47:48;;;;;;;9.50;1.77;;;;;;;;;;5022652;28;20112;-81
2022/09/21 08:50:52;;;;;;;7.80;1.30;;;;;;;;;;5029799;28;20112;-77
2022/09/21 08:53:34;;;;;;;5.95;1.65;;;;;;;;;;5029170;28;20447;-78
2022/09/21 08:56:01;;;;;;;8.70;1.70;;;;;;;;;;5044849;28;20033;-79
2022/09/21 08:58:30;;;;;;;10.00;1.67;;;;;;;;;;5029736;28;20032;-78
2022/09/21 09:01:38;;;;;;;10.10;1.73;;;;;;;;;;5029956;28;20527;-78
2022/09/21 09:04:18;;;;;;;5.85;1.60;;;;;;;;;;5029586;28;20114;-77
2022/09/21 09:07:02;;;;;;;7.00;1.48;;;;;;;;;;5032679;28;20091;-77
2022/09/21 09:09:42;;;;;;;6.15;1.48;;;;;;;;;;5033446;28;20064;-80
2022/09/21 09:12:28;;;;;;;11.05;1.40;;;;;;;;;;5033465;28;20025;-78
2022/09/21 09:15:02;;;;;;;8.13;1.40;;;;;;;;;;5033332;28;20314;-79
2022/09/21 09:17:55;;;;;;;8.98;1.50;;;;;;;;;;5033469;28;20075;-81
2022/09/21 09:20:45;;;;;;;9.13;1.40;;;;;;;;;;5033509;28;20026;-82
2022/09/21 09:23:23;;;;;;;7.72;1.63;;;;;;;;;;5033181;28;20033;-80
2022/09/21 09:25:55;;;;;;;10.05;1.30;;;;;;;;;;5033337;28;20029;-82
2022/09/21 09:28:23;;;;;;;8.23;1.42;;;;;;;;;;5033122;28;20108;-81
2022/09/21 09:30:56;;;;;;;7.10;1.27;;;;;;;;;;5033326;28;20029;-80
2022/09/21 09:33:33;;;;;;;13.02;1.98;;;;;;;;;;5032927;28;20033;-81
2022/09/21 09:36:04;;;;;;;12.68;1.90;;;;;;;;;;5033254;28;20042;-80
2022/09/21 09:38:37;;;;;;;11.93;1.60;;;;;;;;;;5032963;28;20030;-80
2022/09/21 09:41:31;;;;;;;7.85;1.52;;;;;;;;;;5033413;28;20033;-80
2022/09/21 09:44:18;;;;;;;8.57;1.50;;;;;;;;;;5015848;28;20091;-79
2022/09/21 09:46:54;;;;;;;7.30;1.27;;;;;;;;;;5033065;28;20025;-81
2022/09/21 09:49:45;;;;;;;10.20;1.50;;;;;;;;;;5032880;28;20033;-82
2022/09/21 09:52:13;;;;;;;8.98;1.20;;;;;;;;;;5032831;28;20017;-83
2022/09/21 09:54:39;;;;;;;6.03;1.30;;;;;;;;;;5032545;28;20032;-82
2022/09/21 09:57:06;;;;;;;8.05;1.27;;;;;;;;;;5032969;28;20025;-82
2022/09/21 09:59:37;;;;;;;6.40;1.40;;;;;;;;;;5032553;28;20037;-82
2022/09/21 10:02:17;;;;;;;10.40;1.52;;;;;;;;;;5032385;28;20042;-82
2022/09/21 10:05:18;;;;;;;4.93;1.20;;;;;;;;;;5032629;28;20071;-83
2022/09/21 10:07:44;;;;;;;7.53;1.45;;;;;;;;;;5025273;28;20025;-81
2022/09/21 10:10:31;;;;;;;7.70;1.80;;;;;;;;;;5032392;28;20489;-82
2022/09/21 10:13:12;;;;;;;5.97;1.50;;;;;;;;;;5031307;28;20492;-82
2022/09/21 10:15:47;;;;;;;;;;;;;;;;;;5032864;28;20503;-81
2022/09/21 10:18:17;;;;;;;6.30;1.52;;;;;;;;;;5031016;28;19913;-82
2022/09/21 10:21:01;;;;;;;7.30;1.67;;;;;;;;;;5031408;28;20036;-81
2022/09/21 10:23:28;;;;;;;7.72;1.50;;;;;;;;;;5033355;28;20108;-80
2022/09/21 10:26:04;;;;;;;8.55;1.50;;;;;;;;;;5033576;28;20026;-78
2022/09/21 10:28:30;;;;;;;5.68;1.23;;;;;;;;;;5031432;28;20044;-80
2022/09/21 10:31:16;;;;;;;6.50;1.13;;;;;;;;;;5032480;28;20033;-80
2022/09/21 10:33:49;;;;;;;8.65;1.40;;;;;;;;;;5032303;28;20037;-78
2022/09/21 10:36:26;;;;;;;5.13;1.40;;;;;;;;;;5031893;28;20389;-79
2022/09/21 10:38:52;;;;;;;5.65;1.20;;;;;;;;;;5031930;28;20025;-77
2022/09/21 10:41:18;;;;;;;4.22;1.30;;;;;;;;;;5032162;28;20021;-76
2022/09/21 10:43:43;;;;;;;4.50;1.13;;;;;;;;;;5031906;28;20100;-78
2022/09/21 10:46:09;;;;;;;8.85;1.60;;;;;;;;;;5031815;28;20052;-77
2022/09/21 10:48:35;;;;;;;5.03;1.00;;;;;;;;;;5031683;28;20114;-77
2022/09/21 10:51:01;;;;;;;5.85;1.30;;;;;;;;;;5031748;28;20049;-76
2022/09/21 10:53:30;;;;;;;9.02;1.40;;;;;;;;;;5031460;28;20025;-76
2022/09/21 10:56:17;;;;;;;4.60;1.10;;;;;;;;;;5031392;28;20040;-79
2022/09/21 10:59:23;;;;;;;9.43;1.42;;;;;;;;;;5031517;28;20188;-78
2022/09/21 11:01:51;;;;;;;5.60;1.40;;;;;;;;;;5031407;28;20025;-79
2022/09/21 11:04:35;;;;;;;4.68;1.42;;;;;;;;;;5031353;28;20053;-77
2022/09/21 11:07:31;;;;;;;5.50;1.23;;;;;;;;;;5031591;28;20027;-81
2022/09/21 11:10:32;;;;;;;6.38;1.40;;;;;;;;;;5031414;28;20076;-80
2022/09/21 11:13:19;;;;;;;5.05;1.35;;;;;;;;;;5031185;28;20080;-78
2022/09/21 11:15:58;;;;;;;6.63;1.20;;;;;;;;;;5031033;28;20095;-79
2022/09/21 11:18:53;;;;;;;7.20;1.30;;;;;;;;;;5031333;28;20033;-78
2022/09/21 11:21:39;;;;;;;6.25;1.50;;;;;;;;;;5031161;28;20423;-77
2022/09/21 11:24:31;;;;;;;5.72;1.10;;;;;;;;;;5030968;28;20040;-78
2022/09/21 11:27:09;;;;;;;8.55;1.50;;;;;;;;;;5031253;28;20053;-79
2022/09/21 11:29:53;;;;;;;5.95;1.20;;;;;;;;;;5030673;28;20018;-78
2022/09/21 11:32:31;;;;;;;7.32;1.50;;;;;;;;;;5029508;28;20030;-78
2022/09/21 11:34:59;;;;;;;4.10;1.27;;;;;;;;;;5030725;28;20033;-77
2022/09/21 11:37:34;;;;;;;8.50;1.30;;;;;;;;;;5031074;28;20520;-78
2022/09/21 11:40:36;;;;;;;10.38;1.30;;;;;;;;;;5030678;28;20025;-78
2022/09/21 11:43:19;;;;;;;4.43;1.05;;;;;;;;;;5030769;28;20025;-77
2022/09/21 11:45:47;;;;;;;5.53;1.40;;;;;;;;;;5030587;28;20105;-78
2022/09/21 11:48:43;;;;;;;4.85;1.23;;;;;;;;;;5030524;28;20037;-78
2022/09/21 11:51:24;;;;;;;7.40;1.27;;;;;;;;;;5030323;28;20040;-78
2022/09/21 11:54:27;;;;;;;7.55;1.38;;;;;;;;;;5030543;28;20029;-79
2022/09/21 11:57:27;;;;;;;4.53;1.35;;;;;;;;;;5030955;28;20053;-78
2022/09/21 12:00:21;;;;;;;4.80;1.23;;;;;;;;;;5030578;28;20033;-78
2022/09/21 12:03:08;;;;;;;4.75;1.20;;;;;;;;;;5028862;28;20047;-81
2022/09/21 12:05:48;;;;;;;5.10;1.30;;;;;;;;;;5030346;28;20029;-80
2022/09/21 12:08:41;;;;;;;8.10;1.50;;;;;;;;;;5030424;28;20504;-80
2022/09/21 12:11:38;;;;;;;6.18;1.27;;;;;;;;;;5030197;28;20029;-81
2022/09/21 12:14:34;;;;;;;8.60;1.25;;;;;;;;;;5028558;28;20076;-81
2022/09/21 12:17:07;;;;;;;4.38;1.20;;;;;;;;;;5030133;28;20025;-81
2022/09/21 12:19:38;;;;;;;4.00;1.23;;;;;;;;;;5030426;28;20084;-81
2022/09/21 12:22:17;;;;;;;3.63;1.00;;;;;;;;;;5029921;28;20543;-80
2022/09/21 12:24:53;;;;;;;5.15;1.20;;;;;;;;;;5029838;28;20104;-79
2022/09/21 12:27:31;;;;;;;2.97;1.00;;;;;;;;;;5030164;28;20029;-81
2022/09/21 12:30:13;;;;;;;3.38;1.05;;;;;;;;;;5030252;28;20026;-79
2022/09/21 12:32:46;;;;;;;3.92;1.27;;;;;;;;;;5030327;28;20048;-79
2022/09/21 12:35:16;;;;;;;4.22;0.98;;;;;;;;;;5029890;28;20487;-81
2022/09/21 12:38:15;;;;;;;8.93;1.10;;;;;;;;;;5030279;28;20026;-81
2022/09/21 12:40:52;;;;;;;4.53;1.33;;;;;;;;;;5005750;28;20037;-80
2022/09/21 12:43:29;;;;;;;3.42;1.00;;;;;;;;;;5029795;28;20030;-81
2022/09/21 12:46:09;;;;;;;5.57;1.20;;;;;;;;;;5029960;28;20064;-81
2022/09/21 12:48:38;;;;;;;3.73;1.00;;;;;;;;;;5030233;28;20033;-80
2022/09/21 12:51:10;;;;;;;7.97;1.10;;;;;;;;;;5029859;28;20260;-80
2022/09/21 12:53:39;;;;;;;3.65;1.20;;;;;;;;;;5029563;28;20029;-80
2022/09/21 12:56:38;;;;;;;4.03;1.00;;;;;;;;;;5029426;28;20122;-80
2022/09/21 12:59:16;;;;;;;4.13;1.02;;;;;;;;;;5028385;28;20037;-79
2022/09/21 13:01:51;;;;;;;4.43;1.08;;;;;;;;;;5029372;28;20087;-80
2022/09/21 13:04:42;;;;;;;3.97;1.05;;;;;;;;;;5029718;28;20072;-80
2022/09/21 13:07:46;;;;;;;7.35;1.15;;;;;;;;;;5023119;28;20488;-81
2022/09/21 13:10:22;;;;;;;6.00;1.20;;;;;;;;;;5029926;28;20109;-80
2022/09/21 13:12:56;;;;;;;4.13;1.10;;;;;;;;;;5029608;28;20022;-81
2022/09/21 13:15:26;;;;;;;6.13;1.10;;;;;;;;;;5029391;28;20036;-80
2022/09/21 13:18:34;;;;;;;4.97;1.05;;;;;;;;;;5029647;28;20569;-80
2022/09/21 13:21:01;;;;;;;2.30;0.80;;;;;;;;;;5024348;28;20112;-79
2022/09/21 13:23:34;;;;;;;5.75;1.13;;;;;;;;;;5044944;28;20029;-79
2022/09/21 13:26:11;;;;;;;3.63;1.30;;;;;;;;;;5029053;28;20035;-81
2022/09/21 13:29:02;;;;;;;3.92;1.20;;;;;;;;;;5029794;28;20493;-80
2022/09/21 13:31:39;;;;;;;4.03;1.00;;;;;;;;;;5027526;28;20096;-78
2022/09/21 13:34:41;;;;;;;4.78;1.45;;;;;;;;;;5029265;28;20025;-81
2022/09/21 13:37:18;;;;;;;4.63;0.88;;;;;;;;;;5029475;28;20037;-77
2022/09/21 13:40:10;;;;;;;3.05;0.98;;;;;;;;;;5029826;28;20068;-78
2022/09/21 13:42:35;;;;;;;3.97;1.00;;;;;;;;;;5029166;28;20022;-77
2022/09/21 13:45:23;;;;;;;3.38;1.00;;;;;;;;;;5029642;28;20032;-80
2022/09/21 13:47:57;;;;;;;4.10;0.80;;;;;;;;;;5029027;28;20107;-79
2022/09/21 13:50:30;;;;;;;3.17;1.08;;;;;;;;;;5029143;28;20455;-80
2022/09/21 13:53:03;;;;;;;2.72;0.90;;;;;;;;;;5031905;28;20041;-79
2022/09/21 13:55:31;;;;;;;6.10;1.20;;;;;;;;;;5032664;28;20163;-80
2022/09/21 13:58:03;;;;;;;4.75;0.98;;;;;;;;;;5032880;28;20041;-79
2022/09/21 14:01:00;;;;;;;6.10;0.98;;;;;;;;;;5032815;28;20017;-80
2022/09/21 14:03:31;;;;;;;5.43;1.08;;;;;;;;;;5031768;28;20037;-80
2022/09/21 14:06:05;;;;;;;4.90;0.90;;;;;;;;;;5032366;28;20368;-79
2022/09/21 14:08:39;;;;;;;8.10;1.15;;;;;;;;;;5032450;28;20029;-77
2022/09/21 14:11:19;;;;;;;2.85;0.98;;;;;;;;;;5032416;28;20068;-78
2022/09/21 14:14:07;;;;;;;4.57;0.90;;;;;;;;;;5032442;28;20037;-78
2022/09/21 14:16:38;;;;;;;3.15;1.20;;;;;;;;;;5023740;28;20038;-81
2022/09/21 14:19:16;;;;;;;3.67;1.15;;;;;;;;;;5031032;28;20033;-80
2022/09/21 14:22:06;;;;;;;3.75;1.10;;;;;;;;;;5032236;28;20025;-81
2022/09/21 14:25:10;;;;;;;2.83;0.90;;;;;;;;;;5032207;28;20532;-80
2022/09/21 14:27:42;;;;;;;2.47;0.90;;;;;;;;;;5031825;28;20034;-80
2022/09/21 14:30:27;;;;;;;4.07;1.10;;;;;;;;;;5032612;28;20025;-78
2022/09/21 14:33:11;;;;;;;5.13;1.20;;;;;;;;;;5032073;28;20033;-78
2022/09/21 14:35:41;;;;;;;3.33;1.13;;;;;;;;;;5032031;28;20061;-78
2022/09/21 14:38:34;;;;;;;7.75;1.25;;;;;;;;;;5032017;28;20030;-79
2022/09/21 14:41:06;;;;;;;4.32;1.00;;;;;;;;;;5032237;28;20109;-78
2022/09/21 14:43:34;;;;;;;4.13;1.10;;;;;;;;;;5031845;28;20424;-80
2022/09/21 14:46:23;;;;;;;3.13;1.00;;;;;;;;;;5031688;28;20022;-80
2022/09/21 14:48:54;;;;;;;3.38;1.00;;;;;;;;;;5031917;28;20037;-82
2022/09/21 14:51:54;;;;;;;4.50;1.08;;;;;;;;;;5031815;28;20518;-82
2022/09/21 14:54:30;;;;;;;5.28;1.10;;;;;;;;;;5031481;28;20053;-81
2022/09/21 14:57:17;;;;;;;4.68;1.00;;;;;;;;;;5031739;28;20029;-82
2022/09/21 15:00:30;;;;;;;9.82;1.08;;;;;;;;;;5031810;28;20028;-80
2022/09/21 15:03:23;;;;;;;3.00;1.00;;;;;;;;;;5029057;28;20657;-82
2022/09/21 15:12:30;;;;;;;5.63;1.08;;;;;;;;;;5031309;28;20527;-82
2022/09/21 15:15:19;;;;;;;4.60;0.82;;;;;;;;;;5031184;28;20163;-82
2022/09/21 15:17:58;;;;;;;2.92;1.02;;;;;;;;;;5030933;28;20516;-82
2022/09/21 15:20:25;;;;;;;6.93;1.05;;;;;;;;;;5031315;28;20080;-82
2022/09/21 15:22:55;;;;;;;3.67;0.93;;;;;;;;;;5031130;28;20079;-81
2022/09/21 15:25:22;;;;;;;4.20;1.02;;;;;;;;;;5031014;28;20033;-81
2022/09/21 15:27:47;;;;;;;3.22;1.00;;;;;;;;;;5031085;28;20436;-81
2022/09/21 15:30:22;;;;;;;4.32;0.90;;;;;;;;;;5031310;28;20029;-81
2022/09/21 15:32:52;;;;;;;4.75;1.00;;;;;;;;;;5030730;28;20018;-80
2022/09/21 15:35:20;;;;;;;;;;;;;;;;;;5031021;28;20064;-81
2022/09/21 15:37:46;;;;;;;2.72;0.90;;;;;;;;;;5030587;28;20438;-80
2022/09/21 15:40:30;;;;;;;5.32;0.82;;;;;;;;;;5030916;28;20026;-82
2022/09/21 15:43:05;;;;;;;3.47;1.15;;;;;;;;;;5030656;28;20025;-81
2022/09/21 15:45:37;;;;;;;4.50;1.10;;;;;;;;;;5030780;28;20026;-80
2022/09/21 15:48:12;;;;;;;2.38;0.90;;;;;;;;;;5030494;28;20132;-81
2022/09/21 15:50:41;;;;;;;6.72;1.42;;;;;;;;;;5030756;28;20014;-80
2022/09/21 15:53:18;;;;;;;6.53;1.10;;;;;;;;;;5030279;28;20155;-81